sensor_id;sensor_type;location;lat;lon;timestamp;P1;durP1;ratioP1;P2;durP2;ratioP2
19776;SDS011;10047;42.490;26.012;2023-04-25T00:00:31;12.95;;;10.73;;
19776;SDS011;10047;42.490;26.012;2023-04-25T00:02:56;13.35;;;10.23;;
19776;SDS011;10047;42.490;26.012;2023-04-25T00:05:22;18.00;;;11.07;;
19776;SDS011;10047;42.490;26.012;2023-04-25T00:07:51;13.25;;;11.43;;
19776;SDS011;10047;42.490;26.012;2023-04-25T00:10:18;15.27;;;11.27;;
19776;SDS011;10047;42.490;26.012;2023-04-25T00:12:44;15.13;;;10.90;;
19776;SDS011;10047;42.490;26.012;2023-04-25T00:15:10;16.27;;;10.05;;
19776;SDS011;10047;42.490;26.012;2023-04-25T00:17:37;13.43;;;9.95;;
19776;SDS011;10047;42.490;26.012;2023-04-25T00:20:03;17.13;;;10.57;;
19776;SDS011;10047;42.490;26.012;2023-04-25T00:22:30;14.48;;;10.73;;
19776;SDS011;10047;42.490;26.012;2023-04-25T00:24:56;19.20;;;10.40;;
19776;SDS011;10047;42.490;26.012;2023-04-25T00:27:24;15.63;;;11.68;;
19776;SDS011;10047;42.490;26.012;2023-04-25T00:29:50;13.82;;;10.25;;
19776;SDS011;10047;42.490;26.012;2023-04-25T00:32:15;14.43;;;11.43;;
19776;SDS011;10047;42.490;26.012;2023-04-25T00:34:41;12.88;;;10.98;;
19776;SDS011;10047;42.490;26.012;2023-04-25T00:37:06;16.48;;;12.13;;
19776;SDS011;10047;42.490;26.012;2023-04-25T00:39:32;15.55;;;11.65;;
19776;SDS011;10047;42.490;26.012;2023-04-25T00:41:57;14.75;;;11.65;;
19776;SDS011;10047;42.490;26.012;2023-04-25T00:44:23;15.68;;;11.70;;
19776;SDS011;10047;42.490;26.012;2023-04-25T00:46:49;18.65;;;11.60;;
19776;SDS011;10047;42.490;26.012;2023-04-25T00:49:16;16.52;;;11.45;;
19776;SDS011;10047;42.490;26.012;2023-04-25T00:51:42;14.93;;;11.05;;
19776;SDS011;10047;42.490;26.012;2023-04-25T00:54:10;14.65;;;11.95;;
19776;SDS011;10047;42.490;26.012;2023-04-25T00:56:37;16.42;;;12.05;;
19776;SDS011;10047;42.490;26.012;2023-04-25T00:59:03;17.88;;;11.80;;
19776;SDS011;10047;42.490;26.012;2023-04-25T01:01:28;16.40;;;12.10;;
19776;SDS011;10047;42.490;26.012;2023-04-25T01:03:56;13.88;;;11.45;;
19776;SDS011;10047;42.490;26.012;2023-04-25T01:06:23;14.70;;;11.27;;
19776;SDS011;10047;42.490;26.012;2023-04-25T01:08:49;15.88;;;11.30;;
19776;SDS011;10047;42.490;26.012;2023-04-25T01:11:16;13.05;;;10.98;;
19776;SDS011;10047;42.490;26.012;2023-04-25T01:13:41;15.82;;;11.27;;
19776;SDS011;10047;42.490;26.012;2023-04-25T01:16:07;12.95;;;10.68;;
19776;SDS011;10047;42.490;26.012;2023-04-25T01:18:40;14.40;;;11.45;;
19776;SDS011;10047;42.490;26.012;2023-04-25T01:21:08;18.60;;;12.55;;
19776;SDS011;10047;42.490;26.012;2023-04-25T01:23:35;15.73;;;12.52;;
19776;SDS011;10047;42.490;26.012;2023-04-25T01:26:01;19.25;;;13.20;;
19776;SDS011;10047;42.490;26.012;2023-04-25T01:28:27;17.42;;;12.75;;
19776;SDS011;10047;42.490;26.012;2023-04-25T01:30:54;16.95;;;11.75;;
19776;SDS011;10047;42.490;26.012;2023-04-25T01:33:20;13.30;;;11.10;;
19776;SDS011;10047;42.490;26.012;2023-04-25T01:35:46;14.27;;;11.35;;
19776;SDS011;10047;42.490;26.012;2023-04-25T01:38:12;16.35;;;12.02;;
19776;SDS011;10047;42.490;26.012;2023-04-25T01:40:39;17.50;;;12.50;;
19776;SDS011;10047;42.490;26.012;2023-04-25T01:43:06;17.58;;;12.43;;
19776;SDS011;10047;42.490;26.012;2023-04-25T01:45:36;16.15;;;12.35;;
19776;SDS011;10047;42.490;26.012;2023-04-25T01:48:04;14.43;;;12.30;;
19776;SDS011;10047;42.490;26.012;2023-04-25T01:50:30;17.45;;;12.10;;
19776;SDS011;10047;42.490;26.012;2023-04-25T01:52:55;16.58;;;12.32;;
19776;SDS011;10047;42.490;26.012;2023-04-25T01:55:21;19.48;;;12.20;;
19776;SDS011;10047;42.490;26.012;2023-04-25T01:57:47;16.35;;;12.20;;
19776;SDS011;10047;42.490;26.012;2023-04-25T02:00:12;16.35;;;12.00;;
19776;SDS011;10047;42.490;26.012;2023-04-25T02:02:38;13.77;;;12.10;;
19776;SDS011;10047;42.490;26.012;2023-04-25T02:05:04;15.93;;;12.60;;
19776;SDS011;10047;42.490;26.012;2023-04-25T02:07:29;15.05;;;11.52;;
19776;SDS011;10047;42.490;26.012;2023-04-25T02:09:55;15.82;;;11.88;;
19776;SDS011;10047;42.490;26.012;2023-04-25T02:12:20;16.70;;;11.50;;
19776;SDS011;10047;42.490;26.012;2023-04-25T02:14:46;14.90;;;11.32;;
19776;SDS011;10047;42.490;26.012;2023-04-25T02:17:11;15.05;;;11.60;;
19776;SDS011;10047;42.490;26.012;2023-04-25T02:19:37;15.15;;;11.65;;
19776;SDS011;10047;42.490;26.012;2023-04-25T02:22:03;15.63;;;11.85;;
19776;SDS011;10047;42.490;26.012;2023-04-25T02:24:28;17.50;;;11.50;;
19776;SDS011;10047;42.490;26.012;2023-04-25T02:26:54;12.90;;;9.93;;
19776;SDS011;10047;42.490;26.012;2023-04-25T02:29:21;14.63;;;12.57;;
19776;SDS011;10047;42.490;26.012;2023-04-25T02:31:53;13.60;;;11.82;;
19776;SDS011;10047;42.490;26.012;2023-04-25T02:34:19;16.27;;;12.13;;
19776;SDS011;10047;42.490;26.012;2023-04-25T02:36:44;13.75;;;11.82;;
19776;SDS011;10047;42.490;26.012;2023-04-25T02:39:10;13.73;;;11.90;;
19776;SDS011;10047;42.490;26.012;2023-04-25T02:41:35;16.13;;;12.10;;
19776;SDS011;10047;42.490;26.012;2023-04-25T02:44:01;17.25;;;12.65;;
19776;SDS011;10047;42.490;26.012;2023-04-25T02:46:26;15.38;;;11.93;;
19776;SDS011;10047;42.490;26.012;2023-04-25T02:48:51;15.15;;;12.23;;
19776;SDS011;10047;42.490;26.012;2023-04-25T02:51:17;15.73;;;12.93;;
19776;SDS011;10047;42.490;26.012;2023-04-25T02:53:42;44.78;;;33.38;;
19776;SDS011;10047;42.490;26.012;2023-04-25T02:56:08;22.83;;;16.10;;
19776;SDS011;10047;42.490;26.012;2023-04-25T02:58:33;18.65;;;15.15;;
19776;SDS011;10047;42.490;26.012;2023-04-25T03:00:58;19.20;;;14.70;;
19776;SDS011;10047;42.490;26.012;2023-04-25T03:03:24;16.92;;;13.38;;
19776;SDS011;10047;42.490;26.012;2023-04-25T03:05:50;20.25;;;13.90;;
19776;SDS011;10047;42.490;26.012;2023-04-25T03:08:16;18.27;;;13.77;;
19776;SDS011;10047;42.490;26.012;2023-04-25T03:10:42;16.77;;;13.23;;
19776;SDS011;10047;42.490;26.012;2023-04-25T03:13:07;17.05;;;12.70;;
19776;SDS011;10047;42.490;26.012;2023-04-25T03:15:33;16.58;;;12.55;;
19776;SDS011;10047;42.490;26.012;2023-04-25T03:17:58;16.13;;;12.70;;
19776;SDS011;10047;42.490;26.012;2023-04-25T03:20:24;19.88;;;12.68;;
19776;SDS011;10047;42.490;26.012;2023-04-25T03:22:49;17.55;;;12.63;;
19776;SDS011;10047;42.490;26.012;2023-04-25T03:25:15;17.17;;;12.55;;
19776;SDS011;10047;42.490;26.012;2023-04-25T03:27:40;16.92;;;13.30;;
19776;SDS011;10047;42.490;26.012;2023-04-25T03:30:06;16.77;;;12.68;;
19776;SDS011;10047;42.490;26.012;2023-04-25T03:32:33;17.13;;;12.93;;
19776;SDS011;10047;42.490;26.012;2023-04-25T03:35:00;16.75;;;12.20;;
19776;SDS011;10047;42.490;26.012;2023-04-25T03:37:25;19.25;;;12.23;;
19776;SDS011;10047;42.490;26.012;2023-04-25T03:39:50;20.73;;;14.18;;
19776;SDS011;10047;42.490;26.012;2023-04-25T03:42:16;18.35;;;13.25;;
19776;SDS011;10047;42.490;26.012;2023-04-25T03:44:42;15.20;;;12.32;;
19776;SDS011;10047;42.490;26.012;2023-04-25T03:47:08;19.10;;;10.93;;
19776;SDS011;10047;42.490;26.012;2023-04-25T03:49:34;16.70;;;12.02;;
19776;SDS011;10047;42.490;26.012;2023-04-25T03:51:59;15.20;;;12.30;;
19776;SDS011;10047;42.490;26.012;2023-04-25T03:54:25;18.45;;;13.23;;
19776;SDS011;10047;42.490;26.012;2023-04-25T03:56:50;17.98;;;12.05;;
19776;SDS011;10047;42.490;26.012;2023-04-25T03:59:16;15.88;;;12.23;;
19776;SDS011;10047;42.490;26.012;2023-04-25T04:01:41;18.40;;;12.23;;
19776;SDS011;10047;42.490;26.012;2023-04-25T04:04:07;17.00;;;12.13;;
19776;SDS011;10047;42.490;26.012;2023-04-25T04:06:32;20.33;;;12.88;;
19776;SDS011;10047;42.490;26.012;2023-04-25T04:08:59;22.00;;;13.82;;
19776;SDS011;10047;42.490;26.012;2023-04-25T04:11:24;19.45;;;13.10;;
19776;SDS011;10047;42.490;26.012;2023-04-25T04:13:50;19.00;;;13.88;;
19776;SDS011;10047;42.490;26.012;2023-04-25T04:16:15;19.83;;;14.05;;
19776;SDS011;10047;42.490;26.012;2023-04-25T04:18:41;18.45;;;14.35;;
19776;SDS011;10047;42.490;26.012;2023-04-25T04:21:06;19.95;;;13.68;;
19776;SDS011;10047;42.490;26.012;2023-04-25T04:23:31;18.08;;;12.68;;
19776;SDS011;10047;42.490;26.012;2023-04-25T04:25:57;17.33;;;12.70;;
19776;SDS011;10047;42.490;26.012;2023-04-25T04:28:22;18.25;;;12.82;;
19776;SDS011;10047;42.490;26.012;2023-04-25T04:30:48;17.50;;;13.20;;
19776;SDS011;10047;42.490;26.012;2023-04-25T04:33:16;17.60;;;11.98;;
19776;SDS011;10047;42.490;26.012;2023-04-25T04:35:43;17.95;;;11.88;;
19776;SDS011;10047;42.490;26.012;2023-04-25T04:38:09;14.65;;;11.18;;
19776;SDS011;10047;42.490;26.012;2023-04-25T04:40:36;15.93;;;12.15;;
19776;SDS011;10047;42.490;26.012;2023-04-25T04:43:02;18.42;;;12.05;;
19776;SDS011;10047;42.490;26.012;2023-04-25T04:45:28;18.10;;;12.55;;
19776;SDS011;10047;42.490;26.012;2023-04-25T04:47:53;17.83;;;13.38;;
19776;SDS011;10047;42.490;26.012;2023-04-25T04:50:20;16.38;;;12.32;;
19776;SDS011;10047;42.490;26.012;2023-04-25T04:52:45;17.15;;;12.52;;
19776;SDS011;10047;42.490;26.012;2023-04-25T04:55:11;17.42;;;15.07;;
19776;SDS011;10047;42.490;26.012;2023-04-25T04:57:36;21.17;;;17.23;;
19776;SDS011;10047;42.490;26.012;2023-04-25T05:00:03;18.60;;;16.60;;
19776;SDS011;10047;42.490;26.012;2023-04-25T05:02:30;18.65;;;13.95;;
19776;SDS011;10047;42.490;26.012;2023-04-25T05:04:55;20.63;;;15.43;;
19776;SDS011;10047;42.490;26.012;2023-04-25T05:07:21;20.02;;;14.13;;
19776;SDS011;10047;42.490;26.012;2023-04-25T05:09:46;20.13;;;13.70;;
19776;SDS011;10047;42.490;26.012;2023-04-25T05:12:12;18.05;;;14.45;;
19776;SDS011;10047;42.490;26.012;2023-04-25T05:14:37;16.80;;;14.65;;
19776;SDS011;10047;42.490;26.012;2023-04-25T05:17:03;17.67;;;13.70;;
19776;SDS011;10047;42.490;26.012;2023-04-25T05:19:31;16.75;;;12.80;;
19776;SDS011;10047;42.490;26.012;2023-04-25T05:21:57;16.77;;;13.70;;
19776;SDS011;10047;42.490;26.012;2023-04-25T05:24:22;16.10;;;13.25;;
19776;SDS011;10047;42.490;26.012;2023-04-25T05:26:48;14.75;;;13.15;;
19776;SDS011;10047;42.490;26.012;2023-04-25T05:29:13;16.60;;;13.32;;
19776;SDS011;10047;42.490;26.012;2023-04-25T05:31:39;17.48;;;13.43;;
19776;SDS011;10047;42.490;26.012;2023-04-25T05:34:04;22.45;;;14.00;;
19776;SDS011;10047;42.490;26.012;2023-04-25T05:36:29;25.70;;;14.32;;
19776;SDS011;10047;42.490;26.012;2023-04-25T05:38:57;20.67;;;13.82;;
19776;SDS011;10047;42.490;26.012;2023-04-25T05:41:22;19.90;;;13.43;;
19776;SDS011;10047;42.490;26.012;2023-04-25T05:43:48;21.15;;;13.45;;
19776;SDS011;10047;42.490;26.012;2023-04-25T05:46:14;15.55;;;12.30;;
19776;SDS011;10047;42.490;26.012;2023-04-25T05:48:42;16.42;;;12.45;;
19776;SDS011;10047;42.490;26.012;2023-04-25T05:51:08;18.55;;;12.63;;
19776;SDS011;10047;42.490;26.012;2023-04-25T05:53:33;21.90;;;13.07;;
19776;SDS011;10047;42.490;26.012;2023-04-25T05:55:59;17.35;;;12.55;;
19776;SDS011;10047;42.490;26.012;2023-04-25T05:58:24;21.67;;;12.80;;
19776;SDS011;10047;42.490;26.012;2023-04-25T06:00:50;17.33;;;12.60;;
19776;SDS011;10047;42.490;26.012;2023-04-25T06:03:16;17.90;;;12.15;;
19776;SDS011;10047;42.490;26.012;2023-04-25T06:05:42;17.45;;;12.60;;
19776;SDS011;10047;42.490;26.012;2023-04-25T06:08:08;16.80;;;11.52;;
19776;SDS011;10047;42.490;26.012;2023-04-25T06:10:33;15.85;;;12.18;;
19776;SDS011;10047;42.490;26.012;2023-04-25T06:12:59;16.92;;;11.20;;
19776;SDS011;10047;42.490;26.012;2023-04-25T06:15:24;15.30;;;12.05;;
19776;SDS011;10047;42.490;26.012;2023-04-25T06:17:50;14.05;;;11.40;;
19776;SDS011;10047;42.490;26.012;2023-04-25T06:20:15;13.40;;;10.80;;
19776;SDS011;10047;42.490;26.012;2023-04-25T06:22:41;18.05;;;11.85;;
19776;SDS011;10047;42.490;26.012;2023-04-25T06:25:06;15.88;;;12.27;;
19776;SDS011;10047;42.490;26.012;2023-04-25T06:27:33;17.73;;;12.07;;
19776;SDS011;10047;42.490;26.012;2023-04-25T06:29:59;16.73;;;12.38;;
19776;SDS011;10047;42.490;26.012;2023-04-25T06:32:24;15.88;;;12.27;;
19776;SDS011;10047;42.490;26.012;2023-04-25T06:34:52;17.52;;;12.63;;
19776;SDS011;10047;42.490;26.012;2023-04-25T06:37:18;16.10;;;11.27;;
19776;SDS011;10047;42.490;26.012;2023-04-25T06:39:43;14.52;;;11.63;;
19776;SDS011;10047;42.490;26.012;2023-04-25T06:42:08;15.95;;;11.68;;
19776;SDS011;10047;42.490;26.012;2023-04-25T06:44:34;19.95;;;11.90;;
19776;SDS011;10047;42.490;26.012;2023-04-25T06:47:00;18.95;;;11.98;;
19776;SDS011;10047;42.490;26.012;2023-04-25T06:49:26;15.85;;;11.55;;
19776;SDS011;10047;42.490;26.012;2023-04-25T06:51:51;16.98;;;12.35;;
19776;SDS011;10047;42.490;26.012;2023-04-25T06:54:17;17.38;;;13.13;;
19776;SDS011;10047;42.490;26.012;2023-04-25T06:56:42;17.92;;;12.20;;
19776;SDS011;10047;42.490;26.012;2023-04-25T06:59:08;14.30;;;11.88;;
19776;SDS011;10047;42.490;26.012;2023-04-25T07:01:34;14.30;;;11.75;;
19776;SDS011;10047;42.490;26.012;2023-04-25T07:04:00;15.52;;;12.52;;
19776;SDS011;10047;42.490;26.012;2023-04-25T07:06:25;18.00;;;12.20;;
19776;SDS011;10047;42.490;26.012;2023-04-25T07:08:52;18.73;;;11.50;;
19776;SDS011;10047;42.490;26.012;2023-04-25T07:11:18;16.10;;;11.30;;
19776;SDS011;10047;42.490;26.012;2023-04-25T07:13:43;19.80;;;11.40;;
19776;SDS011;10047;42.490;26.012;2023-04-25T07:16:09;14.77;;;11.18;;
19776;SDS011;10047;42.490;26.012;2023-04-25T07:18:34;14.55;;;10.90;;
19776;SDS011;10047;42.490;26.012;2023-04-25T07:21:00;14.63;;;10.70;;
19776;SDS011;10047;42.490;26.012;2023-04-25T07:23:25;14.55;;;11.15;;
19776;SDS011;10047;42.490;26.012;2023-04-25T07:25:51;16.02;;;11.35;;
19776;SDS011;10047;42.490;26.012;2023-04-25T07:28:16;14.68;;;11.25;;
19776;SDS011;10047;42.490;26.012;2023-04-25T07:30:43;13.55;;;10.57;;
19776;SDS011;10047;42.490;26.012;2023-04-25T07:33:08;13.55;;;10.75;;
19776;SDS011;10047;42.490;26.012;2023-04-25T07:35:34;17.10;;;11.25;;
19776;SDS011;10047;42.490;26.012;2023-04-25T07:38:00;18.48;;;11.45;;
19776;SDS011;10047;42.490;26.012;2023-04-25T07:40:25;12.50;;;10.35;;
19776;SDS011;10047;42.490;26.012;2023-04-25T07:42:51;14.05;;;10.98;;
19776;SDS011;10047;42.490;26.012;2023-04-25T07:45:16;13.40;;;11.00;;
19776;SDS011;10047;42.490;26.012;2023-04-25T07:47:42;15.52;;;11.65;;
19776;SDS011;10047;42.490;26.012;2023-04-25T07:50:07;14.38;;;9.52;;
19776;SDS011;10047;42.490;26.012;2023-04-25T07:52:33;13.52;;;9.32;;
19776;SDS011;10047;42.490;26.012;2023-04-25T07:54:59;12.02;;;9.55;;
19776;SDS011;10047;42.490;26.012;2023-04-25T07:57:25;11.38;;;8.82;;
19776;SDS011;10047;42.490;26.012;2023-04-25T07:59:50;13.27;;;9.60;;
19776;SDS011;10047;42.490;26.012;2023-04-25T08:02:16;14.90;;;9.77;;
19776;SDS011;10047;42.490;26.012;2023-04-25T08:04:41;14.38;;;9.85;;
19776;SDS011;10047;42.490;26.012;2023-04-25T08:07:07;13.40;;;9.48;;
19776;SDS011;10047;42.490;26.012;2023-04-25T08:09:32;14.52;;;10.05;;
19776;SDS011;10047;42.490;26.012;2023-04-25T08:12:02;12.48;;;8.70;;
19776;SDS011;10047;42.490;26.012;2023-04-25T08:14:28;12.57;;;9.63;;
19776;SDS011;10047;42.490;26.012;2023-04-25T08:16:56;14.43;;;9.43;;
19776;SDS011;10047;42.490;26.012;2023-04-25T08:19:21;13.95;;;9.60;;
19776;SDS011;10047;42.490;26.012;2023-04-25T08:21:47;13.02;;;9.35;;
19776;SDS011;10047;42.490;26.012;2023-04-25T08:24:12;14.75;;;9.35;;
19776;SDS011;10047;42.490;26.012;2023-04-25T08:26:37;11.93;;;8.88;;
19776;SDS011;10047;42.490;26.012;2023-04-25T08:29:04;13.85;;;8.70;;
19776;SDS011;10047;42.490;26.012;2023-04-25T08:31:30;15.63;;;8.82;;
19776;SDS011;10047;42.490;26.012;2023-04-25T08:33:55;10.38;;;8.57;;
19776;SDS011;10047;42.490;26.012;2023-04-25T08:36:21;11.23;;;8.32;;
19776;SDS011;10047;42.490;26.012;2023-04-25T08:38:47;11.07;;;8.48;;
19776;SDS011;10047;42.490;26.012;2023-04-25T08:41:13;13.35;;;8.93;;
19776;SDS011;10047;42.490;26.012;2023-04-25T08:43:41;11.32;;;7.90;;
19776;SDS011;10047;42.490;26.012;2023-04-25T08:46:08;12.55;;;8.25;;
19776;SDS011;10047;42.490;26.012;2023-04-25T08:48:35;11.65;;;8.40;;
19776;SDS011;10047;42.490;26.012;2023-04-25T08:51:01;11.50;;;8.57;;
19776;SDS011;10047;42.490;26.012;2023-04-25T08:53:29;11.40;;;8.20;;
19776;SDS011;10047;42.490;26.012;2023-04-25T08:55:57;9.55;;;7.57;;
19776;SDS011;10047;42.490;26.012;2023-04-25T08:58:24;10.68;;;8.50;;
19776;SDS011;10047;42.490;26.012;2023-04-25T09:00:50;12.23;;;8.13;;
19776;SDS011;10047;42.490;26.012;2023-04-25T09:03:17;9.90;;;7.60;;
19776;SDS011;10047;42.490;26.012;2023-04-25T09:05:43;12.57;;;8.68;;
19776;SDS011;10047;42.490;26.012;2023-04-25T09:08:09;12.98;;;9.13;;
19776;SDS011;10047;42.490;26.012;2023-04-25T09:10:35;10.80;;;8.40;;
19776;SDS011;10047;42.490;26.012;2023-04-25T09:13:02;10.85;;;8.52;;
19776;SDS011;10047;42.490;26.012;2023-04-25T09:15:51;13.95;;;8.77;;
19776;SDS011;10047;42.490;26.012;2023-04-25T09:18:24;10.80;;;7.90;;
19776;SDS011;10047;42.490;26.012;2023-04-25T09:20:52;13.43;;;7.90;;
19776;SDS011;10047;42.490;26.012;2023-04-25T09:23:22;12.32;;;8.00;;
19776;SDS011;10047;42.490;26.012;2023-04-25T09:25:49;9.77;;;7.28;;
19776;SDS011;10047;42.490;26.012;2023-04-25T09:28:24;10.68;;;8.32;;
19776;SDS011;10047;42.490;26.012;2023-04-25T09:30:54;14.15;;;8.10;;
19776;SDS011;10047;42.490;26.012;2023-04-25T09:33:28;14.68;;;8.18;;
19776;SDS011;10047;42.490;26.012;2023-04-25T09:35:56;18.42;;;8.27;;
19776;SDS011;10047;42.490;26.012;2023-04-25T09:41:08;14.65;;;6.75;;
19776;SDS011;10047;42.490;26.012;2023-04-25T09:43:35;7.25;;;5.82;;
19776;SDS011;10047;42.490;26.012;2023-04-25T09:46:01;6.38;;;5.07;;
19776;SDS011;10047;42.490;26.012;2023-04-25T09:48:27;6.80;;;5.20;;
19776;SDS011;10047;42.490;26.012;2023-04-25T09:53:28;6.55;;;5.00;;
19776;SDS011;10047;42.490;26.012;2023-04-25T09:55:53;6.43;;;4.80;;
19776;SDS011;10047;42.490;26.012;2023-04-25T09:58:24;5.70;;;5.15;;
19776;SDS011;10047;42.490;26.012;2023-04-25T10:00:53;6.50;;;5.20;;
19776;SDS011;10047;42.490;26.012;2023-04-25T10:03:21;6.30;;;4.80;;
19776;SDS011;10047;42.490;26.012;2023-04-25T10:05:50;5.50;;;4.95;;
19776;SDS011;10047;42.490;26.012;2023-04-25T10:08:17;6.72;;;4.88;;
19776;SDS011;10047;42.490;26.012;2023-04-25T10:10:43;8.55;;;4.50;;
19776;SDS011;10047;42.490;26.012;2023-04-25T10:13:10;5.28;;;4.78;;
19776;SDS011;10047;42.490;26.012;2023-04-25T10:15:36;4.85;;;4.10;;
19776;SDS011;10047;42.490;26.012;2023-04-25T10:18:02;5.18;;;4.30;;
19776;SDS011;10047;42.490;26.012;2023-04-25T10:20:29;5.65;;;4.85;;
19776;SDS011;10047;42.490;26.012;2023-04-25T10:22:55;6.60;;;4.22;;
19776;SDS011;10047;42.490;26.012;2023-04-25T10:25:42;4.90;;;4.28;;
19776;SDS011;10047;42.490;26.012;2023-04-25T10:28:08;6.32;;;4.85;;
19776;SDS011;10047;42.490;26.012;2023-04-25T10:30:33;8.13;;;5.75;;
19776;SDS011;10047;42.490;26.012;2023-04-25T10:32:59;6.85;;;4.40;;
19776;SDS011;10047;42.490;26.012;2023-04-25T10:40:39;5.05;;;3.97;;
19776;SDS011;10047;42.490;26.012;2023-04-25T10:45:59;5.15;;;4.05;;
19776;SDS011;10047;42.490;26.012;2023-04-25T10:48:26;6.28;;;3.85;;
19776;SDS011;10047;42.490;26.012;2023-04-25T10:51:10;7.20;;;3.92;;
19776;SDS011;10047;42.490;26.012;2023-04-25T10:53:40;5.00;;;4.22;;
19776;SDS011;10047;42.490;26.012;2023-04-25T10:56:16;6.15;;;4.65;;
19776;SDS011;10047;42.490;26.012;2023-04-25T10:58:44;4.75;;;4.10;;
19776;SDS011;10047;42.490;26.012;2023-04-25T11:01:13;6.53;;;4.35;;
19776;SDS011;10047;42.490;26.012;2023-04-25T11:03:40;4.57;;;3.65;;
19776;SDS011;10047;42.490;26.012;2023-04-25T11:06:22;6.38;;;4.10;;
19776;SDS011;10047;42.490;26.012;2023-04-25T11:08:53;4.88;;;4.15;;
19776;SDS011;10047;42.490;26.012;2023-04-25T11:11:18;4.40;;;4.00;;
19776;SDS011;10047;42.490;26.012;2023-04-25T11:13:47;5.75;;;4.50;;
19776;SDS011;10047;42.490;26.012;2023-04-25T11:16:13;7.00;;;4.30;;
19776;SDS011;10047;42.490;26.012;2023-04-25T11:18:40;5.72;;;4.10;;
19776;SDS011;10047;42.490;26.012;2023-04-25T11:21:06;5.88;;;4.38;;
19776;SDS011;10047;42.490;26.012;2023-04-25T11:23:32;5.32;;;4.03;;
19776;SDS011;10047;42.490;26.012;2023-04-25T11:25:57;5.55;;;4.03;;
19776;SDS011;10047;42.490;26.012;2023-04-25T11:28:25;6.40;;;5.40;;
19776;SDS011;10047;42.490;26.012;2023-04-25T11:30:51;5.50;;;4.53;;
19776;SDS011;10047;42.490;26.012;2023-04-25T11:33:17;6.63;;;4.10;;
19776;SDS011;10047;42.490;26.012;2023-04-25T11:35:43;4.78;;;4.13;;
19776;SDS011;10047;42.490;26.012;2023-04-25T11:38:08;7.10;;;4.40;;
19776;SDS011;10047;42.490;26.012;2023-04-25T11:40:35;4.40;;;4.00;;
19776;SDS011;10047;42.490;26.012;2023-04-25T11:43:01;8.70;;;4.40;;
19776;SDS011;10047;42.490;26.012;2023-04-25T11:45:28;6.75;;;4.32;;
19776;SDS011;10047;42.490;26.012;2023-04-25T11:47:55;6.60;;;4.82;;
19776;SDS011;10047;42.490;26.012;2023-04-25T11:50:21;6.07;;;3.70;;
19776;SDS011;10047;42.490;26.012;2023-04-25T11:52:46;5.68;;;3.17;;
19776;SDS011;10047;42.490;26.012;2023-04-25T11:55:14;5.38;;;2.65;;
19776;SDS011;10047;42.490;26.012;2023-04-25T11:57:41;5.60;;;2.78;;
19776;SDS011;10047;42.490;26.012;2023-04-25T12:00:11;2.08;;;1.60;;
19776;SDS011;10047;42.490;26.012;2023-04-25T12:02:40;2.55;;;2.20;;
19776;SDS011;10047;42.490;26.012;2023-04-25T12:05:07;5.75;;;2.20;;
19776;SDS011;10047;42.490;26.012;2023-04-25T12:07:33;3.80;;;2.22;;
19776;SDS011;10047;42.490;26.012;2023-04-25T12:09:59;3.28;;;2.50;;
19776;SDS011;10047;42.490;26.012;2023-04-25T12:12:28;7.85;;;4.72;;
19776;SDS011;10047;42.490;26.012;2023-04-25T12:15:07;6.38;;;2.78;;
19776;SDS011;10047;42.490;26.012;2023-04-25T12:17:36;6.22;;;3.42;;
19776;SDS011;10047;42.490;26.012;2023-04-25T12:20:08;4.88;;;2.67;;
19776;SDS011;10047;42.490;26.012;2023-04-25T12:22:35;2.97;;;2.67;;
19776;SDS011;10047;42.490;26.012;2023-04-25T12:25:01;3.40;;;2.40;;
19776;SDS011;10047;42.490;26.012;2023-04-25T12:27:30;4.53;;;2.22;;
19776;SDS011;10047;42.490;26.012;2023-04-25T12:29:56;6.50;;;2.70;;
19776;SDS011;10047;42.490;26.012;2023-04-25T12:34:51;4.28;;;2.13;;
19776;SDS011;10047;42.490;26.012;2023-04-25T12:37:17;5.50;;;3.08;;
19776;SDS011;10047;42.490;26.012;2023-04-25T12:39:42;3.90;;;2.15;;
19776;SDS011;10047;42.490;26.012;2023-04-25T12:42:08;2.90;;;1.98;;
19776;SDS011;10047;42.490;26.012;2023-04-25T12:44:36;3.28;;;2.80;;
19776;SDS011;10047;42.490;26.012;2023-04-25T12:47:02;7.88;;;3.60;;
19776;SDS011;10047;42.490;26.012;2023-04-25T12:49:28;7.78;;;4.47;;
19776;SDS011;10047;42.490;26.012;2023-04-25T12:51:53;2.20;;;1.58;;
19776;SDS011;10047;42.490;26.012;2023-04-25T12:54:19;3.05;;;1.95;;
19776;SDS011;10047;42.490;26.012;2023-04-25T12:56:45;7.47;;;3.58;;
19776;SDS011;10047;42.490;26.012;2023-04-25T12:59:11;2.78;;;2.03;;
19776;SDS011;10047;42.490;26.012;2023-04-25T13:01:36;2.08;;;1.30;;
19776;SDS011;10047;42.490;26.012;2023-04-25T13:04:02;2.42;;;1.67;;
19776;SDS011;10047;42.490;26.012;2023-04-25T13:06:27;2.38;;;1.73;;
19776;SDS011;10047;42.490;26.012;2023-04-25T13:08:55;2.00;;;1.35;;
19776;SDS011;10047;42.490;26.012;2023-04-25T13:11:20;2.30;;;1.42;;
19776;SDS011;10047;42.490;26.012;2023-04-25T13:13:45;3.10;;;1.63;;
19776;SDS011;10047;42.490;26.012;2023-04-25T13:16:11;2.42;;;1.70;;
19776;SDS011;10047;42.490;26.012;2023-04-25T13:18:39;2.88;;;1.90;;
19776;SDS011;10047;42.490;26.012;2023-04-25T13:21:04;3.75;;;2.10;;
19776;SDS011;10047;42.490;26.012;2023-04-25T13:23:30;3.17;;;2.20;;
19776;SDS011;10047;42.490;26.012;2023-04-25T13:25:56;2.70;;;1.75;;
19776;SDS011;10047;42.490;26.012;2023-04-25T13:28:26;2.42;;;1.70;;
19776;SDS011;10047;42.490;26.012;2023-04-25T13:30:52;2.92;;;1.83;;
19776;SDS011;10047;42.490;26.012;2023-04-25T13:33:18;2.65;;;1.70;;
19776;SDS011;10047;42.490;26.012;2023-04-25T13:35:45;4.00;;;2.50;;
19776;SDS011;10047;42.490;26.012;2023-04-25T13:38:12;2.38;;;1.70;;
19776;SDS011;10047;42.490;26.012;2023-04-25T13:40:38;3.88;;;1.70;;
19776;SDS011;10047;42.490;26.012;2023-04-25T13:43:04;2.28;;;1.73;;
19776;SDS011;10047;42.490;26.012;2023-04-25T13:45:31;3.67;;;2.33;;
19776;SDS011;10047;42.490;26.012;2023-04-25T13:47:57;6.97;;;2.97;;
19776;SDS011;10047;42.490;26.012;2023-04-25T13:50:22;4.63;;;1.77;;
19776;SDS011;10047;42.490;26.012;2023-04-25T13:52:48;3.90;;;2.20;;
19776;SDS011;10047;42.490;26.012;2023-04-25T13:55:13;3.50;;;1.83;;
19776;SDS011;10047;42.490;26.012;2023-04-25T13:57:39;4.88;;;2.03;;
19776;SDS011;10047;42.490;26.012;2023-04-25T14:00:04;4.45;;;2.00;;
19776;SDS011;10047;42.490;26.012;2023-04-25T14:02:36;5.18;;;1.83;;
19776;SDS011;10047;42.490;26.012;2023-04-25T14:05:08;3.45;;;1.90;;
19776;SDS011;10047;42.490;26.012;2023-04-25T14:07:36;2.40;;;1.55;;
19776;SDS011;10047;42.490;26.012;2023-04-25T14:10:02;2.45;;;1.88;;
19776;SDS011;10047;42.490;26.012;2023-04-25T14:12:29;2.65;;;1.80;;
19776;SDS011;10047;42.490;26.012;2023-04-25T14:14:55;3.92;;;2.00;;
19776;SDS011;10047;42.490;26.012;2023-04-25T14:17:20;2.50;;;2.20;;
19776;SDS011;10047;42.490;26.012;2023-04-25T14:19:46;3.83;;;1.95;;
19776;SDS011;10047;42.490;26.012;2023-04-25T14:22:13;3.53;;;1.95;;
19776;SDS011;10047;42.490;26.012;2023-04-25T14:24:39;3.08;;;1.73;;
19776;SDS011;10047;42.490;26.012;2023-04-25T14:27:04;3.35;;;1.88;;
19776;SDS011;10047;42.490;26.012;2023-04-25T14:29:30;2.70;;;1.92;;